createdAt,value
2023-05-14T00:01:18.804Z,98.70
2023-05-14T00:03:46.572Z,98.70
2023-05-14T00:06:14.384Z,99.00
2023-05-14T00:08:43.470Z,99.40
2023-05-14T00:11:11.209Z,99.50
2023-05-14T00:13:39.057Z,99.60
2023-05-14T00:16:07.223Z,99.90
2023-05-14T00:18:35.076Z,99.80
2023-05-14T00:21:03.104Z,99.50
2023-05-14T00:23:30.897Z,99.70
2023-05-14T00:25:59.948Z,99.60
2023-05-14T00:28:27.676Z,99.00
2023-05-14T00:30:55.971Z,98.70
2023-05-14T00:33:23.837Z,98.60
2023-05-14T00:35:51.637Z,98.30
2023-05-14T00:38:19.562Z,98.30
2023-05-14T00:40:51.680Z,98.80
2023-05-14T00:43:22.468Z,98.60
2023-05-14T00:45:51.886Z,99.10
2023-05-14T00:48:21.025Z,99.70
2023-05-14T00:50:50.455Z,99.90
2023-05-14T00:53:18.988Z,99.70
2023-05-14T00:55:47.720Z,99.90
2023-05-14T00:58:15.663Z,99.60
2023-05-14T01:00:44.804Z,99.50
2023-05-14T01:03:12.681Z,99.60
2023-05-14T01:05:48.324Z,99.80
2023-05-14T01:08:30.098Z,99.90
2023-05-14T01:11:04.882Z,99.90
2023-05-14T01:13:38.854Z,99.90
2023-05-14T01:16:12.340Z,99.90
2023-05-14T01:18:42.258Z,99.90
2023-05-14T01:21:25.720Z,99.70
2023-05-14T01:23:53.456Z,99.80
2023-05-14T01:26:21.526Z,99.90
2023-05-14T01:28:52.700Z,99.90
2023-05-14T01:31:28.648Z,99.60
2023-05-14T01:33:58.450Z,99.60
2023-05-14T01:36:29.571Z,99.90
2023-05-14T01:38:58.270Z,99.90
2023-05-14T01:41:26.900Z,99.90
2023-05-14T01:43:54.724Z,99.90
2023-05-14T01:46:24.139Z,99.90
2023-05-14T01:48:51.969Z,99.90
2023-05-14T01:51:19.752Z,99.90
2023-05-14T01:53:48.813Z,99.90
2023-05-14T01:56:16.555Z,99.90
2023-05-14T01:58:44.275Z,99.90
2023-05-14T02:01:12.051Z,99.90
2023-05-14T02:03:39.871Z,99.90
2023-05-14T02:06:07.960Z,99.90
2023-05-14T02:08:35.705Z,99.90
2023-05-14T02:11:04.764Z,99.90
2023-05-14T02:13:32.500Z,99.90
2023-05-14T02:16:00.317Z,99.90
2023-05-14T02:18:28.090Z,99.90
2023-05-14T02:20:56.008Z,99.90
2023-05-14T02:23:34.219Z,99.90
2023-05-14T02:26:10.513Z,99.90
2023-05-14T02:28:38.277Z,99.90
2023-05-14T02:31:06.161Z,99.90
2023-05-14T02:33:33.920Z,99.90
2023-05-14T02:36:01.653Z,99.90
2023-05-14T02:38:29.373Z,99.90
2023-05-14T02:40:57.161Z,99.90
2023-05-14T02:43:26.174Z,99.90
2023-05-14T02:45:53.930Z,99.90
2023-05-14T02:48:21.625Z,99.90
2023-05-14T02:50:51.068Z,99.70
2023-05-14T02:53:18.898Z,99.90
2023-05-14T02:55:46.624Z,99.90
2023-05-14T02:58:14.972Z,99.90
2023-05-14T03:00:44.090Z,99.90
2023-05-14T03:03:12.321Z,99.80
2023-05-14T03:05:40.487Z,99.50
2023-05-14T03:08:08.357Z,99.90
2023-05-14T03:10:36.070Z,99.90
2023-05-14T03:13:03.891Z,99.90
2023-05-14T03:15:31.618Z,99.90
2023-05-14T03:18:00.746Z,99.90
2023-05-14T03:20:28.757Z,99.90
2023-05-14T03:22:56.641Z,99.90
2023-05-14T03:25:24.362Z,99.90
2023-05-14T03:27:52.179Z,99.90
2023-05-14T03:30:20.194Z,99.90
2023-05-14T03:32:48.215Z,99.90
2023-05-14T03:35:17.438Z,99.90
2023-05-14T03:37:45.142Z,99.90
2023-05-14T03:40:13.505Z,99.90
2023-05-14T03:42:41.229Z,99.90
2023-05-14T03:45:11.114Z,99.90
2023-05-14T03:47:38.985Z,99.90
2023-05-14T03:50:08.134Z,99.90
2023-05-14T03:52:37.247Z,99.90
2023-05-14T03:55:05.405Z,99.90
2023-05-14T03:57:33.107Z,99.90
2023-05-14T04:00:00.844Z,99.90
2023-05-14T04:02:28.665Z,99.90
2023-05-14T04:04:56.526Z,99.90
2023-05-14T04:07:24.258Z,99.90
2023-05-14T04:09:53.282Z,99.90
2023-05-14T04:12:20.966Z,99.90
2023-05-14T04:14:48.697Z,99.90
2023-05-14T04:17:16.399Z,99.90
2023-05-14T04:19:44.133Z,99.90
2023-05-14T04:22:11.822Z,99.90
2023-05-14T04:24:39.527Z,99.90
2023-05-14T04:27:08.561Z,99.90
2023-05-14T04:29:36.297Z,99.90
2023-05-14T04:32:04.821Z,99.90
2023-05-14T04:34:32.648Z,99.90
2023-05-14T04:37:00.365Z,99.90
2023-05-14T04:39:28.108Z,99.90
2023-05-14T04:41:55.799Z,99.90
2023-05-14T04:44:24.882Z,99.90
2023-05-14T04:46:52.646Z,99.90
2023-05-14T04:49:20.804Z,99.90
2023-05-14T04:51:49.361Z,99.90
2023-05-14T04:54:17.085Z,99.90
2023-05-14T04:56:44.832Z,99.90
2023-05-14T04:59:12.657Z,99.90
2023-05-14T05:01:41.737Z,99.90
2023-05-14T05:04:09.650Z,99.90
2023-05-14T05:06:37.477Z,99.90
2023-05-14T05:09:05.433Z,99.90
2023-05-14T05:11:33.219Z,99.90
2023-05-14T05:14:00.989Z,99.90
2023-05-14T05:16:28.828Z,99.90
2023-05-14T05:18:57.917Z,99.90
2023-05-14T05:21:25.826Z,99.90
2023-05-14T05:23:53.588Z,99.90
2023-05-14T05:26:22.056Z,99.90
2023-05-14T05:28:49.791Z,99.90
2023-05-14T05:31:19.695Z,99.90
2023-05-14T05:33:47.794Z,99.90
2023-05-14T05:36:16.909Z,99.90
2023-05-14T05:38:44.636Z,99.90
2023-05-14T05:41:12.361Z,99.90
2023-05-14T05:43:40.100Z,99.90
2023-05-14T05:46:08.583Z,99.90
2023-05-14T05:48:36.310Z,99.90
2023-05-14T05:51:04.095Z,99.90
2023-05-14T05:53:33.213Z,99.90
2023-05-14T05:56:01.001Z,99.90
2023-05-14T05:58:28.755Z,99.90
2023-05-14T06:00:57.626Z,99.90
2023-05-14T06:03:25.383Z,99.90
2023-05-14T06:05:53.541Z,99.90
2023-05-14T06:08:21.302Z,99.90
2023-05-14T06:10:50.348Z,99.90
2023-05-14T06:13:18.063Z,99.90
2023-05-14T06:15:45.786Z,99.90
2023-05-14T06:18:13.534Z,99.90
2023-05-14T06:20:41.662Z,99.90
2023-05-14T06:23:11.169Z,99.90
2023-05-14T06:25:38.969Z,99.90
2023-05-14T06:28:08.129Z,99.90
2023-05-14T06:30:35.869Z,99.90
2023-05-14T06:33:03.597Z,99.90
2023-05-14T06:35:31.398Z,99.90
2023-05-14T06:37:59.129Z,99.90
2023-05-14T06:40:26.895Z,99.90
2023-05-14T06:42:54.605Z,99.90
2023-05-14T06:45:23.673Z,99.90
2023-05-14T06:47:51.417Z,99.90
2023-05-14T06:50:19.306Z,99.90
2023-05-14T06:52:47.128Z,99.90
2023-05-14T06:55:14.855Z,99.90
2023-05-14T06:57:42.692Z,99.90
2023-05-14T07:00:11.384Z,99.90
2023-05-14T07:02:40.461Z,99.90
2023-05-14T07:05:09.498Z,99.90
2023-05-14T07:07:37.459Z,99.90
2023-05-14T07:10:06.022Z,99.90
2023-05-14T07:12:33.717Z,99.90
2023-05-14T07:15:01.423Z,99.90
2023-05-14T07:17:29.257Z,99.90
2023-05-14T07:19:58.382Z,99.90
2023-05-14T07:22:26.154Z,99.90
2023-05-14T07:24:53.881Z,99.90
2023-05-14T07:27:21.630Z,99.90
2023-05-14T07:29:50.295Z,99.90
2023-05-14T07:32:18.012Z,99.90
2023-05-14T07:34:46.329Z,99.90
2023-05-14T07:37:15.390Z,99.90
2023-05-14T07:39:43.164Z,99.90
2023-05-14T07:42:11.671Z,99.90
2023-05-14T07:44:41.411Z,99.90
2023-05-14T07:47:09.167Z,99.90
2023-05-14T07:49:36.942Z,99.90
2023-05-14T07:52:05.076Z,99.90
2023-05-14T07:54:34.159Z,99.90
2023-05-14T07:57:01.912Z,99.90
2023-05-14T07:59:29.631Z,99.90
2023-05-14T08:01:57.489Z,99.90
2023-05-14T08:04:25.306Z,97.70
2023-05-14T08:06:53.236Z,97.70
2023-05-14T08:09:20.934Z,96.40
2023-05-14T08:11:50.247Z,97.50
2023-05-14T08:14:17.942Z,96.50
2023-05-14T08:16:45.841Z,99.20
2023-05-14T08:19:14.387Z,98.00
2023-05-14T08:21:42.353Z,97.30
2023-05-14T08:24:10.177Z,98.10
2023-05-14T08:26:38.742Z,97.80
2023-05-14T08:29:09.979Z,97.70
2023-05-14T08:31:38.464Z,98.00
2023-05-14T08:34:06.177Z,97.60
2023-05-14T08:36:33.920Z,97.40
2023-05-14T08:39:01.646Z,97.10
2023-05-14T08:41:29.844Z,97.00
2023-05-14T08:44:05.064Z,96.90
2023-05-14T08:46:34.675Z,97.00
2023-05-14T08:49:14.466Z,95.80
2023-05-14T08:51:42.660Z,95.80
2023-05-14T08:54:14.542Z,95.70
2023-05-14T08:56:44.627Z,95.90
2023-05-14T08:59:12.460Z,96.10
2023-05-14T09:01:47.640Z,96.00
2023-05-14T09:04:17.703Z,95.00
2023-05-14T09:06:49.607Z,94.60
2023-05-14T09:09:17.426Z,94.00
2023-05-14T09:11:47.316Z,93.70
2023-05-14T09:14:15.109Z,93.10
2023-05-14T09:16:46.403Z,93.10
2023-05-14T09:19:15.591Z,92.50
2023-05-14T09:21:45.571Z,91.40
2023-05-14T09:24:21.096Z,90.80
2023-05-14T09:26:52.502Z,92.20
2023-05-14T09:29:20.309Z,94.00
2023-05-14T09:31:51.814Z,96.00
2023-05-14T09:34:25.408Z,95.90
2023-05-14T09:36:57.137Z,96.30
2023-05-14T09:39:25.154Z,96.00
2023-05-14T09:41:53.267Z,96.00
2023-05-14T09:44:27.132Z,95.50
2023-05-14T09:46:56.857Z,95.20
2023-05-14T09:49:24.679Z,94.80
2023-05-14T09:51:52.593Z,94.30
2023-05-14T09:54:20.437Z,93.70
2023-05-14T09:56:48.191Z,96.30
2023-05-14T09:59:15.974Z,94.30
2023-05-14T10:01:44.082Z,93.80
2023-05-14T10:04:13.741Z,94.30
2023-05-14T10:06:43.629Z,93.70
2023-05-14T10:09:13.651Z,93.40
2023-05-14T10:11:44.722Z,93.20
2023-05-14T10:14:18.465Z,92.90
2023-05-14T10:16:49.865Z,93.30
2023-05-14T10:19:21.766Z,92.30
2023-05-14T10:21:54.181Z,92.40
2023-05-14T10:24:22.970Z,92.10
2023-05-14T10:26:50.873Z,91.20
2023-05-14T10:29:18.608Z,93.60
2023-05-14T10:31:48.199Z,92.20
2023-05-14T10:34:40.670Z,91.20
2023-05-14T10:37:21.711Z,90.50
2023-05-14T10:39:51.629Z,91.30
2023-05-14T10:42:22.212Z,90.30
2023-05-14T10:44:54.125Z,85.80
2023-05-14T10:47:22.281Z,84.50
2023-05-14T10:49:53.247Z,83.80
2023-05-14T10:52:21.078Z,90.20
2023-05-14T10:54:53.055Z,90.90
2023-05-14T10:57:21.970Z,89.20
2023-05-14T10:59:53.145Z,90.40
2023-05-14T11:02:23.195Z,88.30
2023-05-14T11:05:03.452Z,87.20
2023-05-14T11:07:33.184Z,81.60
2023-05-14T11:10:03.473Z,83.80
2023-05-14T11:12:31.545Z,83.70
2023-05-14T11:15:00.670Z,84.20
2023-05-14T11:17:29.618Z,85.30
2023-05-14T11:19:59.749Z,86.20
2023-05-14T11:22:27.882Z,89.70
2023-05-14T11:24:55.759Z,86.10
2023-05-14T11:27:24.050Z,87.80
2023-05-14T11:29:52.191Z,88.10
2023-05-14T11:32:20.918Z,83.50
2023-05-14T11:34:49.059Z,85.20
2023-05-14T11:37:18.191Z,83.30
2023-05-14T11:39:49.825Z,80.60
2023-05-14T11:42:19.516Z,81.20
2023-05-14T11:44:48.987Z,79.00
2023-05-14T11:47:18.201Z,79.50
2023-05-14T11:49:46.075Z,81.40
2023-05-14T11:52:15.060Z,82.20
2023-05-14T11:54:45.197Z,84.30
2023-05-14T11:57:14.863Z,81.50
2023-05-14T11:59:42.989Z,82.50
2023-05-14T12:02:12.710Z,80.80
2023-05-14T12:04:41.503Z,79.00
2023-05-14T12:07:11.312Z,80.30
2023-05-14T12:09:44.245Z,81.10
2023-05-14T12:12:14.251Z,79.50
2023-05-14T12:14:43.850Z,81.00
2023-05-14T12:17:14.106Z,81.30
2023-05-14T12:19:42.968Z,79.80
2023-05-14T12:22:12.411Z,79.20
2023-05-14T12:24:40.227Z,74.10
2023-05-14T12:27:08.873Z,77.70
2023-05-14T12:29:39.530Z,76.00
2023-05-14T12:32:10.909Z,73.20
2023-05-14T12:34:39.567Z,70.90
2023-05-14T12:37:09.767Z,69.10
2023-05-14T12:39:37.560Z,68.10
2023-05-14T12:42:05.848Z,69.90
2023-05-14T12:44:33.552Z,64.60
2023-05-14T12:47:03.186Z,64.20
2023-05-14T12:49:30.906Z,69.10
2023-05-14T12:52:17.108Z,68.40
2023-05-14T12:54:46.272Z,61.80
2023-05-14T12:57:14.078Z,65.30
2023-05-14T12:59:42.043Z,64.00
2023-05-14T13:02:11.128Z,66.50
2023-05-14T13:04:39.032Z,60.20
2023-05-14T13:07:08.826Z,59.70
2023-05-14T13:09:36.564Z,62.20
2023-05-14T13:12:04.628Z,61.30
2023-05-14T13:14:32.353Z,58.90
2023-05-14T13:17:00.268Z,62.40
2023-05-14T13:19:29.584Z,61.30
2023-05-14T13:21:57.351Z,60.00
2023-05-14T13:24:25.560Z,61.00
2023-05-14T13:26:53.275Z,58.60
2023-05-14T13:29:20.984Z,58.70
2023-05-14T13:31:48.703Z,61.20
2023-05-14T13:34:16.464Z,62.10
2023-05-14T13:36:47.067Z,59.30
2023-05-14T13:39:14.845Z,62.20
2023-05-14T13:41:42.951Z,63.30
2023-05-14T13:44:10.804Z,62.80
2023-05-14T13:46:38.758Z,62.60
2023-05-14T13:49:06.540Z,64.60
2023-05-14T13:51:34.267Z,62.80
2023-05-14T13:54:03.353Z,60.60
2023-05-14T13:56:31.213Z,64.90
2023-05-14T13:58:58.958Z,63.10
2023-05-14T14:01:26.796Z,62.60
2023-05-14T14:03:54.546Z,63.00
2023-05-14T14:06:22.241Z,59.40
2023-05-14T14:08:49.904Z,57.90
2023-05-14T14:11:19.007Z,57.60
2023-05-14T14:13:46.933Z,58.50
2023-05-14T14:16:14.695Z,59.60
2023-05-14T14:18:43.138Z,60.90
2023-05-14T14:21:11.157Z,60.30
2023-05-14T14:23:38.951Z,57.80
2023-05-14T14:26:06.767Z,57.50
2023-05-14T14:28:35.853Z,57.90
2023-05-14T14:31:03.624Z,55.70
2023-05-14T14:33:31.302Z,57.60
2023-05-14T14:35:59.089Z,59.40
2023-05-14T14:38:26.784Z,59.40
2023-05-14T14:40:54.497Z,58.10
2023-05-14T14:43:22.202Z,57.20
2023-05-14T14:45:51.436Z,58.10
2023-05-14T14:48:27.921Z,58.10
2023-05-14T14:50:56.339Z,58.40
2023-05-14T14:53:24.801Z,59.10
2023-05-14T14:55:52.868Z,59.50
2023-05-14T14:58:21.525Z,58.50
2023-05-14T15:00:52.623Z,59.10
2023-05-14T15:03:20.749Z,61.10
2023-05-14T15:05:48.640Z,60.20
2023-05-14T15:08:16.663Z,59.40
2023-05-14T15:10:45.823Z,60.50
2023-05-14T15:13:13.852Z,59.40
2023-05-14T15:15:41.628Z,57.90
2023-05-14T15:18:10.980Z,59.30
2023-05-14T15:20:38.733Z,60.50
2023-05-14T15:23:07.049Z,58.20
2023-05-14T15:25:34.776Z,59.10
2023-05-14T15:28:02.456Z,58.20
2023-05-14T15:30:31.134Z,59.50
2023-05-14T15:32:58.907Z,58.90
2023-05-14T15:35:27.984Z,57.50
2023-05-14T15:37:57.413Z,57.30
2023-05-14T15:40:25.597Z,59.60
2023-05-14T15:42:53.404Z,58.20
2023-05-14T15:45:21.241Z,61.00
2023-05-14T15:47:49.095Z,61.70
2023-05-14T15:50:16.839Z,64.30
2023-05-14T15:52:46.003Z,62.10
2023-05-14T15:55:13.837Z,59.40
2023-05-14T15:57:41.525Z,57.80
2023-05-14T16:00:11.068Z,57.30
2023-05-14T16:02:39.882Z,59.20
2023-05-14T16:05:08.933Z,60.20
2023-05-14T16:07:37.446Z,59.80
2023-05-14T16:10:07.663Z,60.40
2023-05-14T16:12:35.435Z,60.70
2023-05-14T16:15:03.245Z,58.70
2023-05-14T16:17:32.688Z,60.50
2023-05-14T16:20:00.733Z,61.30
2023-05-14T16:22:29.332Z,60.70
2023-05-14T16:24:57.031Z,61.00
2023-05-14T16:27:26.998Z,62.50
2023-05-14T16:29:58.036Z,59.60
2023-05-14T16:32:25.876Z,59.10
2023-05-14T16:34:53.655Z,58.30
2023-05-14T16:37:21.613Z,59.40
2023-05-14T16:39:49.920Z,61.00
2023-05-14T16:42:17.721Z,59.40
2023-05-14T16:44:46.955Z,60.90
2023-05-14T16:47:14.857Z,61.40
2023-05-14T16:49:43.195Z,59.40
2023-05-14T16:52:10.970Z,58.80
2023-05-14T16:54:38.667Z,59.40
2023-05-14T16:57:06.741Z,60.40
2023-05-14T16:59:34.456Z,61.70
2023-05-14T17:02:03.563Z,61.60
2023-05-14T17:04:33.300Z,62.50
2023-05-14T17:07:01.471Z,63.20
2023-05-14T17:09:29.190Z,61.80
2023-05-14T17:11:57.145Z,64.10
2023-05-14T17:14:25.092Z,63.50
2023-05-14T17:16:52.947Z,63.50
2023-05-14T17:19:22.048Z,65.60
2023-05-14T17:21:49.788Z,65.70
2023-05-14T17:24:17.520Z,66.10
2023-05-14T17:26:45.326Z,66.70
2023-05-14T17:29:13.006Z,69.10
2023-05-14T17:31:40.750Z,67.40
2023-05-14T17:34:08.497Z,69.20
2023-05-14T17:36:37.556Z,69.00
2023-05-14T17:39:05.376Z,69.10
2023-05-14T17:41:33.223Z,68.20
2023-05-14T17:44:00.932Z,69.20
2023-05-14T17:46:28.792Z,68.60
2023-05-14T17:48:58.153Z,69.10
2023-05-14T17:51:26.054Z,69.50
2023-05-14T17:53:55.190Z,70.00
2023-05-14T17:56:23.032Z,70.70
2023-05-14T17:58:50.984Z,70.30
2023-05-14T18:01:18.986Z,69.70
2023-05-14T18:03:46.837Z,70.90
2023-05-14T18:06:15.009Z,71.20
2023-05-14T18:08:42.831Z,71.60
2023-05-14T18:11:11.896Z,72.90
2023-05-14T18:13:39.638Z,72.80
2023-05-14T18:16:07.557Z,72.00
2023-05-14T18:18:35.572Z,73.00
2023-05-14T18:21:03.323Z,73.20
2023-05-14T18:23:31.406Z,73.90
2023-05-14T18:26:00.144Z,75.00
2023-05-14T18:28:29.366Z,75.20
2023-05-14T18:30:57.144Z,75.00
2023-05-14T18:33:31.137Z,77.60
2023-05-14T18:35:58.911Z,77.80
2023-05-14T18:38:26.893Z,78.90
2023-05-14T18:40:54.668Z,79.60
2023-05-14T18:43:22.386Z,80.30
2023-05-14T18:45:52.111Z,80.10
2023-05-14T18:48:19.920Z,79.10
2023-05-14T18:50:47.685Z,80.00
2023-05-14T18:53:15.407Z,78.90
2023-05-14T18:55:43.194Z,80.00
2023-05-14T18:58:12.035Z,81.30
2023-05-14T19:00:39.848Z,82.50
2023-05-14T19:03:08.984Z,82.80
2023-05-14T19:05:36.888Z,83.50
2023-05-14T19:08:05.961Z,83.80
2023-05-14T19:10:35.358Z,83.80
2023-05-14T19:13:04.385Z,84.70
2023-05-14T19:15:33.716Z,85.20
2023-05-14T19:18:02.060Z,86.00
2023-05-14T19:20:31.310Z,87.30
2023-05-14T19:22:59.039Z,87.30
2023-05-14T19:25:27.834Z,87.90
2023-05-14T19:27:56.477Z,88.40
2023-05-14T19:30:24.226Z,88.80
2023-05-14T19:32:53.190Z,89.10
2023-05-14T19:35:20.910Z,89.60
2023-05-14T19:37:49.960Z,90.10
2023-05-14T19:40:17.804Z,90.50
2023-05-14T19:42:45.537Z,90.70
2023-05-14T19:45:13.691Z,91.10
2023-05-14T19:47:42.721Z,91.40
2023-05-14T19:50:11.213Z,91.30
2023-05-14T19:52:39.361Z,91.30
2023-05-14T19:55:09.046Z,91.30
2023-05-14T19:57:38.751Z,91.20
2023-05-14T20:00:08.814Z,91.10
2023-05-14T20:02:36.877Z,91.30
2023-05-14T20:05:06.685Z,91.60
2023-05-14T20:07:34.399Z,91.80
2023-05-14T20:10:02.304Z,91.70
2023-05-14T20:12:31.359Z,91.90
2023-05-14T20:14:59.103Z,92.10
2023-05-14T20:17:26.933Z,92.20
2023-05-14T20:19:54.810Z,92.60
2023-05-14T20:22:22.510Z,93.00
2023-05-14T20:24:50.467Z,93.00
2023-05-14T20:27:18.128Z,93.20
2023-05-14T20:29:47.705Z,93.40
2023-05-14T20:32:15.602Z,93.60
2023-05-14T20:34:43.352Z,94.40
2023-05-14T20:37:11.065Z,94.60
2023-05-14T20:39:38.828Z,93.80
2023-05-14T20:42:07.190Z,93.90
2023-05-14T20:44:34.977Z,94.00
2023-05-14T20:47:04.077Z,94.10
2023-05-14T20:49:31.788Z,94.20
2023-05-14T20:51:59.476Z,94.20
2023-05-14T20:54:27.218Z,94.40
2023-05-14T20:56:54.940Z,94.40
2023-05-14T20:59:22.737Z,94.50
2023-05-14T21:01:50.477Z,94.80
2023-05-14T21:04:19.672Z,95.30
2023-05-14T21:06:47.655Z,95.70
2023-05-14T21:09:15.336Z,95.60
2023-05-14T21:11:43.037Z,95.70
2023-05-14T21:14:10.764Z,95.30
2023-05-14T21:16:38.534Z,95.40
2023-05-14T21:19:06.333Z,95.40
2023-05-14T21:21:35.443Z,95.60
2023-05-14T21:24:03.274Z,96.00
2023-05-14T21:26:32.942Z,97.50
2023-05-14T21:29:01.302Z,97.90
2023-05-14T21:31:29.071Z,98.50
2023-05-14T21:33:56.997Z,98.60
2023-05-14T21:36:24.824Z,99.10
2023-05-14T21:38:53.968Z,98.80
2023-05-14T21:41:22.063Z,97.80
2023-05-14T21:43:49.780Z,96.50
2023-05-14T21:46:17.533Z,96.40
2023-05-14T21:48:45.350Z,96.80
2023-05-14T21:51:13.112Z,98.50
2023-05-14T21:53:40.799Z,98.30
2023-05-14T21:56:10.327Z,97.90
2023-05-14T21:58:38.069Z,97.40
2023-05-14T22:01:05.895Z,96.90
2023-05-14T22:03:33.678Z,97.00
2023-05-14T22:06:01.602Z,97.40
2023-05-14T22:08:30.684Z,97.90
2023-05-14T22:10:58.510Z,97.50
2023-05-14T22:13:27.581Z,97.10
2023-05-14T22:16:08.734Z,97.30
2023-05-14T22:18:40.347Z,97.40
2023-05-14T22:21:08.069Z,98.30
2023-05-14T22:23:36.131Z,98.00
2023-05-14T22:26:04.142Z,96.80
2023-05-14T22:28:33.237Z,96.90
2023-05-14T22:31:01.095Z,97.10
2023-05-14T22:33:28.781Z,96.50
2023-05-14T22:35:56.494Z,96.60
2023-05-14T22:38:24.193Z,97.30
2023-05-14T22:40:51.999Z,97.20
2023-05-14T22:43:19.747Z,97.10
2023-05-14T22:45:48.833Z,97.20
2023-05-14T22:48:16.581Z,97.50
2023-05-14T22:50:44.375Z,97.50
2023-05-14T22:53:12.101Z,97.40
2023-05-14T22:55:39.802Z,97.70
2023-05-14T22:58:08.203Z,97.50
2023-05-14T23:00:35.915Z,97.20
2023-05-14T23:03:05.071Z,96.70
2023-05-14T23:05:32.848Z,96.70
2023-05-14T23:08:00.665Z,97.10
2023-05-14T23:10:28.838Z,97.30
2023-05-14T23:12:56.579Z,97.00
2023-05-14T23:15:24.489Z,96.90
2023-05-14T23:17:52.452Z,96.50
2023-05-14T23:20:21.590Z,96.50
2023-05-14T23:22:49.310Z,96.30
2023-05-14T23:25:17.189Z,96.60
2023-05-14T23:27:44.933Z,96.30
2023-05-14T23:30:13.385Z,96.20
2023-05-14T23:32:41.127Z,96.60
2023-05-14T23:35:09.444Z,96.60
2023-05-14T23:37:42.452Z,96.70
2023-05-14T23:40:11.034Z,96.70
2023-05-14T23:42:38.765Z,96.90
2023-05-14T23:45:07.278Z,96.80
2023-05-14T23:47:35.093Z,96.60
2023-05-14T23:50:02.839Z,96.70
2023-05-14T23:52:30.536Z,96.70
2023-05-14T23:54:59.540Z,96.80
2023-05-14T23:57:27.396Z,96.80
2023-05-14T23:59:55.318Z,97.10
